sensor_id;sensor_type;location;lat;lon;timestamp;P1;durP1;ratioP1;P2;durP2;ratioP2
52043;SDS011;38053;53.100;6.078;2023-03-01T00:01:27;33.83;;;20.83;;
52043;SDS011;38053;53.100;6.078;2023-03-01T00:03:59;31.02;;;20.38;;
52043;SDS011;38053;53.100;6.078;2023-03-01T00:06:26;35.55;;;21.75;;
52043;SDS011;38053;53.100;6.078;2023-03-01T00:08:52;36.35;;;22.50;;
52043;SDS011;38053;53.100;6.078;2023-03-01T00:13:47;39.28;;;23.98;;
52043;SDS011;38053;53.100;6.078;2023-03-01T00:16:17;48.47;;;27.80;;
52043;SDS011;38053;53.100;6.078;2023-03-01T00:18:45;41.35;;;24.17;;
52043;SDS011;38053;53.100;6.078;2023-03-01T00:21:11;35.63;;;21.75;;
52043;SDS011;38053;53.100;6.078;2023-03-01T00:23:37;34.95;;;21.20;;
52043;SDS011;38053;53.100;6.078;2023-03-01T00:26:10;35.40;;;20.85;;
52043;SDS011;38053;53.100;6.078;2023-03-01T00:28:38;36.10;;;23.05;;
52043;SDS011;38053;53.100;6.078;2023-03-01T00:31:05;43.65;;;25.55;;
52043;SDS011;38053;53.100;6.078;2023-03-01T00:33:34;42.50;;;27.45;;
52043;SDS011;38053;53.100;6.078;2023-03-01T00:36:00;45.10;;;28.15;;
52043;SDS011;38053;53.100;6.078;2023-03-01T00:38:27;42.63;;;27.17;;
52043;SDS011;38053;53.100;6.078;2023-03-01T00:40:54;44.35;;;27.95;;
52043;SDS011;38053;53.100;6.078;2023-03-01T00:43:30;43.58;;;27.27;;
52043;SDS011;38053;53.100;6.078;2023-03-01T00:48:31;43.38;;;26.33;;
52043;SDS011;38053;53.100;6.078;2023-03-01T00:50:57;43.08;;;25.27;;
52043;SDS011;38053;53.100;6.078;2023-03-01T00:53:32;40.13;;;26.35;;
52043;SDS011;38053;53.100;6.078;2023-03-01T00:55:59;43.92;;;26.00;;
52043;SDS011;38053;53.100;6.078;2023-03-01T00:58:24;40.90;;;26.77;;
52043;SDS011;38053;53.100;6.078;2023-03-01T01:00:50;40.42;;;26.10;;
52043;SDS011;38053;53.100;6.078;2023-03-01T01:03:18;38.30;;;24.85;;
52043;SDS011;38053;53.100;6.078;2023-03-01T01:05:47;37.92;;;25.45;;
52043;SDS011;38053;53.100;6.078;2023-03-01T01:08:13;41.33;;;25.63;;
52043;SDS011;38053;53.100;6.078;2023-03-01T01:10:38;40.13;;;25.55;;
52043;SDS011;38053;53.100;6.078;2023-03-01T01:13:04;45.00;;;25.67;;
52043;SDS011;38053;53.100;6.078;2023-03-01T01:15:33;38.35;;;25.35;;
52043;SDS011;38053;53.100;6.078;2023-03-01T01:18:00;44.08;;;25.48;;
52043;SDS011;38053;53.100;6.078;2023-03-01T01:20:26;36.25;;;22.85;;
52043;SDS011;38053;53.100;6.078;2023-03-01T01:22:53;36.72;;;23.38;;
52043;SDS011;38053;53.100;6.078;2023-03-01T01:25:19;38.10;;;23.85;;
52043;SDS011;38053;53.100;6.078;2023-03-01T01:27:46;39.63;;;22.73;;
52043;SDS011;38053;53.100;6.078;2023-03-01T01:30:12;34.85;;;21.65;;
52043;SDS011;38053;53.100;6.078;2023-03-01T01:32:38;31.65;;;19.13;;
52043;SDS011;38053;53.100;6.078;2023-03-01T01:35:04;34.80;;;21.20;;
52043;SDS011;38053;53.100;6.078;2023-03-01T01:37:30;29.70;;;19.20;;
52043;SDS011;38053;53.100;6.078;2023-03-01T01:39:58;27.67;;;17.58;;
52043;SDS011;38053;53.100;6.078;2023-03-01T01:42:25;29.08;;;18.85;;
52043;SDS011;38053;53.100;6.078;2023-03-01T01:47:57;70.13;;;23.92;;
52043;SDS011;38053;53.100;6.078;2023-03-01T01:50:37;46.95;;;22.05;;
52043;SDS011;38053;53.100;6.078;2023-03-01T01:53:09;37.53;;;19.25;;
52043;SDS011;38053;53.100;6.078;2023-03-01T01:55:39;47.10;;;22.13;;
52043;SDS011;38053;53.100;6.078;2023-03-01T01:58:08;102.75;;;27.83;;
52043;SDS011;38053;53.100;6.078;2023-03-01T02:00:40;115.00;;;26.60;;
52043;SDS011;38053;53.100;6.078;2023-03-01T02:03:08;141.27;;;29.67;;
52043;SDS011;38053;53.100;6.078;2023-03-01T02:08:23;206.10;;;28.40;;
52043;SDS011;38053;53.100;6.078;2023-03-01T02:10:51;100.20;;;24.83;;
52043;SDS011;38053;53.100;6.078;2023-03-01T02:13:19;132.85;;;26.70;;
52043;SDS011;38053;53.100;6.078;2023-03-01T02:15:46;72.03;;;21.95;;
52043;SDS011;38053;53.100;6.078;2023-03-01T02:18:14;88.75;;;24.98;;
52043;SDS011;38053;53.100;6.078;2023-03-01T02:24:02;37.92;;;17.70;;
52043;SDS011;38053;53.100;6.078;2023-03-01T02:26:48;36.38;;;18.45;;
52043;SDS011;38053;53.100;6.078;2023-03-01T02:29:19;37.10;;;17.88;;
52043;SDS011;38053;53.100;6.078;2023-03-01T02:31:46;34.88;;;17.23;;
52043;SDS011;38053;53.100;6.078;2023-03-01T02:34:14;131.90;;;19.95;;
52043;SDS011;38053;53.100;6.078;2023-03-01T02:37:25;39.30;;;16.25;;
52043;SDS011;38053;53.100;6.078;2023-03-01T02:39:42;78.03;;;16.60;;
52043;SDS011;38053;53.100;6.078;2023-03-01T02:42:12;75.22;;;16.95;;
52043;SDS011;38053;53.100;6.078;2023-03-01T02:44:42;97.75;;;20.50;;
52043;SDS011;38053;53.100;6.078;2023-03-01T02:47:07;76.40;;;18.98;;
52043;SDS011;38053;53.100;6.078;2023-03-01T02:49:34;86.50;;;20.75;;
52043;SDS011;38053;53.100;6.078;2023-03-01T02:52:07;72.05;;;20.80;;
52043;SDS011;38053;53.100;6.078;2023-03-01T02:57:15;41.47;;;20.45;;
52043;SDS011;38053;53.100;6.078;2023-03-01T02:59:41;33.95;;;16.55;;
52043;SDS011;38053;53.100;6.078;2023-03-01T03:02:18;32.40;;;15.67;;
52043;SDS011;38053;53.100;6.078;2023-03-01T03:05:22;34.05;;;18.05;;
52043;SDS011;38053;53.100;6.078;2023-03-01T03:07:48;153.35;;;27.20;;
52043;SDS011;38053;53.100;6.078;2023-03-01T03:10:23;43.75;;;21.08;;
52043;SDS011;38053;53.100;6.078;2023-03-01T03:12:54;44.33;;;21.33;;
52043;SDS011;38053;53.100;6.078;2023-03-01T03:15:22;74.45;;;25.48;;
52043;SDS011;38053;53.100;6.078;2023-03-01T03:17:50;79.97;;;26.10;;
52043;SDS011;38053;53.100;6.078;2023-03-01T03:20:18;95.47;;;27.55;;
52043;SDS011;38053;53.100;6.078;2023-03-01T03:22:48;41.20;;;22.75;;
52043;SDS011;38053;53.100;6.078;2023-03-01T03:25:15;42.75;;;21.42;;
52043;SDS011;38053;53.100;6.078;2023-03-01T03:27:43;36.20;;;18.33;;
52043;SDS011;38053;53.100;6.078;2023-03-01T03:30:12;72.95;;;18.58;;
52043;SDS011;38053;53.100;6.078;2023-03-01T03:32:41;60.10;;;19.75;;
52043;SDS011;38053;53.100;6.078;2023-03-01T03:35:17;89.13;;;20.27;;
52043;SDS011;38053;53.100;6.078;2023-03-01T03:37:46;110.53;;;21.20;;
52043;SDS011;38053;53.100;6.078;2023-03-01T03:40:28;91.65;;;18.38;;
52043;SDS011;38053;53.100;6.078;2023-03-01T03:42:55;63.65;;;18.40;;
52043;SDS011;38053;53.100;6.078;2023-03-01T03:45:21;57.35;;;18.52;;
52043;SDS011;38053;53.100;6.078;2023-03-01T03:47:47;81.90;;;17.65;;
52043;SDS011;38053;53.100;6.078;2023-03-01T03:50:14;69.55;;;15.27;;
52043;SDS011;38053;53.100;6.078;2023-03-01T03:52:42;76.00;;;13.40;;
52043;SDS011;38053;53.100;6.078;2023-03-01T03:55:08;104.85;;;14.52;;
52043;SDS011;38053;53.100;6.078;2023-03-01T03:57:35;97.40;;;13.82;;
52043;SDS011;38053;53.100;6.078;2023-03-01T04:00:02;92.13;;;15.32;;
52043;SDS011;38053;53.100;6.078;2023-03-01T04:02:30;117.10;;;22.05;;
52043;SDS011;38053;53.100;6.078;2023-03-01T04:04:56;88.47;;;20.00;;
52043;SDS011;38053;53.100;6.078;2023-03-01T04:07:22;96.18;;;19.60;;
52043;SDS011;38053;53.100;6.078;2023-03-01T04:09:48;62.90;;;14.82;;
52043;SDS011;38053;53.100;6.078;2023-03-01T04:12:16;82.55;;;12.02;;
52043;SDS011;38053;53.100;6.078;2023-03-01T04:14:48;47.60;;;11.10;;
52043;SDS011;38053;53.100;6.078;2023-03-01T04:17:14;44.40;;;11.27;;
52043;SDS011;38053;53.100;6.078;2023-03-01T04:19:40;47.00;;;10.98;;
52043;SDS011;38053;53.100;6.078;2023-03-01T04:22:09;44.35;;;11.20;;
52043;SDS011;38053;53.100;6.078;2023-03-01T04:24:42;38.08;;;13.30;;
52043;SDS011;38053;53.100;6.078;2023-03-01T04:27:08;28.20;;;10.88;;
52043;SDS011;38053;53.100;6.078;2023-03-01T04:29:34;20.30;;;9.70;;
52043;SDS011;38053;53.100;6.078;2023-03-01T04:32:00;16.38;;;10.45;;
52043;SDS011;38053;53.100;6.078;2023-03-01T04:34:26;17.67;;;9.85;;
52043;SDS011;38053;53.100;6.078;2023-03-01T04:36:52;14.43;;;9.32;;
52043;SDS011;38053;53.100;6.078;2023-03-01T04:39:19;14.60;;;9.55;;
52043;SDS011;38053;53.100;6.078;2023-03-01T04:41:45;17.70;;;11.02;;
52043;SDS011;38053;53.100;6.078;2023-03-01T04:44:12;16.63;;;10.82;;
52043;SDS011;38053;53.100;6.078;2023-03-01T04:46:38;17.33;;;10.80;;
52043;SDS011;38053;53.100;6.078;2023-03-01T04:49:04;28.77;;;15.45;;
52043;SDS011;38053;53.100;6.078;2023-03-01T04:51:30;33.72;;;18.65;;
52043;SDS011;38053;53.100;6.078;2023-03-01T04:53:59;46.90;;;22.65;;
52043;SDS011;38053;53.100;6.078;2023-03-01T04:56:25;42.83;;;23.00;;
52043;SDS011;38053;53.100;6.078;2023-03-01T04:58:53;43.25;;;22.35;;
52043;SDS011;38053;53.100;6.078;2023-03-01T05:01:19;42.72;;;23.23;;
52043;SDS011;38053;53.100;6.078;2023-03-01T05:03:47;38.65;;;20.73;;
52043;SDS011;38053;53.100;6.078;2023-03-01T05:06:15;40.78;;;21.85;;
52043;SDS011;38053;53.100;6.078;2023-03-01T05:08:41;43.97;;;24.50;;
52043;SDS011;38053;53.100;6.078;2023-03-01T05:11:07;37.95;;;22.30;;
52043;SDS011;38053;53.100;6.078;2023-03-01T05:13:34;38.22;;;23.00;;
52043;SDS011;38053;53.100;6.078;2023-03-01T05:16:07;34.33;;;20.38;;
52043;SDS011;38053;53.100;6.078;2023-03-01T05:18:37;41.65;;;23.88;;
52043;SDS011;38053;53.100;6.078;2023-03-01T05:21:07;41.60;;;22.80;;
52043;SDS011;38053;53.100;6.078;2023-03-01T05:23:35;45.15;;;22.27;;
52043;SDS011;38053;53.100;6.078;2023-03-01T05:26:02;39.65;;;21.40;;
52043;SDS011;38053;53.100;6.078;2023-03-01T05:28:30;39.75;;;22.23;;
52043;SDS011;38053;53.100;6.078;2023-03-01T05:30:59;35.55;;;20.98;;
52043;SDS011;38053;53.100;6.078;2023-03-01T05:33:26;40.15;;;21.33;;
52043;SDS011;38053;53.100;6.078;2023-03-01T05:35:53;37.08;;;20.83;;
52043;SDS011;38053;53.100;6.078;2023-03-01T05:38:19;33.92;;;19.15;;
52043;SDS011;38053;53.100;6.078;2023-03-01T05:40:46;33.78;;;19.42;;
52043;SDS011;38053;53.100;6.078;2023-03-01T05:43:13;35.33;;;20.27;;
52043;SDS011;38053;53.100;6.078;2023-03-01T05:45:41;32.38;;;18.83;;
52043;SDS011;38053;53.100;6.078;2023-03-01T05:48:08;34.47;;;19.55;;
52043;SDS011;38053;53.100;6.078;2023-03-01T05:50:36;32.25;;;18.02;;
52043;SDS011;38053;53.100;6.078;2023-03-01T05:53:12;31.92;;;18.05;;
52043;SDS011;38053;53.100;6.078;2023-03-01T05:55:43;36.00;;;19.85;;
52043;SDS011;38053;53.100;6.078;2023-03-01T05:58:10;35.28;;;18.45;;
52043;SDS011;38053;53.100;6.078;2023-03-01T06:00:42;34.30;;;18.80;;
52043;SDS011;38053;53.100;6.078;2023-03-01T06:03:10;33.63;;;18.80;;
52043;SDS011;38053;53.100;6.078;2023-03-01T06:05:36;33.42;;;18.90;;
52043;SDS011;38053;53.100;6.078;2023-03-01T06:08:04;32.70;;;17.60;;
52043;SDS011;38053;53.100;6.078;2023-03-01T06:10:32;32.30;;;18.25;;
52043;SDS011;38053;53.100;6.078;2023-03-01T06:12:58;36.03;;;19.88;;
52043;SDS011;38053;53.100;6.078;2023-03-01T06:15:23;29.50;;;17.27;;
52043;SDS011;38053;53.100;6.078;2023-03-01T06:17:51;32.35;;;18.50;;
52043;SDS011;38053;53.100;6.078;2023-03-01T06:20:23;31.10;;;18.83;;
52043;SDS011;38053;53.100;6.078;2023-03-01T06:22:50;31.45;;;17.45;;
52043;SDS011;38053;53.100;6.078;2023-03-01T06:25:18;34.70;;;20.83;;
52043;SDS011;38053;53.100;6.078;2023-03-01T06:27:46;35.25;;;19.25;;
52043;SDS011;38053;53.100;6.078;2023-03-01T06:30:17;31.25;;;18.38;;
52043;SDS011;38053;53.100;6.078;2023-03-01T06:32:44;30.63;;;18.70;;
52043;SDS011;38053;53.100;6.078;2023-03-01T06:35:10;36.00;;;18.67;;
52043;SDS011;38053;53.100;6.078;2023-03-01T06:37:37;34.83;;;18.67;;
52043;SDS011;38053;53.100;6.078;2023-03-01T06:40:04;33.70;;;18.08;;
52043;SDS011;38053;53.100;6.078;2023-03-01T06:42:36;33.60;;;19.87;;
52043;SDS011;38053;53.100;6.078;2023-03-01T06:45:09;35.08;;;18.65;;
52043;SDS011;38053;53.100;6.078;2023-03-01T06:47:35;28.77;;;17.33;;
52043;SDS011;38053;53.100;6.078;2023-03-01T06:50:01;30.85;;;18.90;;
52043;SDS011;38053;53.100;6.078;2023-03-01T06:52:28;32.65;;;19.77;;
52043;SDS011;38053;53.100;6.078;2023-03-01T06:54:55;36.15;;;20.58;;
52043;SDS011;38053;53.100;6.078;2023-03-01T06:57:21;30.33;;;16.85;;
52043;SDS011;38053;53.100;6.078;2023-03-01T06:59:47;33.63;;;18.17;;
52043;SDS011;38053;53.100;6.078;2023-03-01T07:02:13;31.95;;;18.58;;
52043;SDS011;38053;53.100;6.078;2023-03-01T07:04:42;31.35;;;18.73;;
52043;SDS011;38053;53.100;6.078;2023-03-01T07:07:08;31.60;;;18.02;;
52043;SDS011;38053;53.100;6.078;2023-03-01T07:09:35;84.63;;;20.63;;
52043;SDS011;38053;53.100;6.078;2023-03-01T07:12:01;33.85;;;19.98;;
52043;SDS011;38053;53.100;6.078;2023-03-01T07:14:27;31.00;;;18.83;;
52043;SDS011;38053;53.100;6.078;2023-03-01T07:16:53;35.95;;;19.55;;
52043;SDS011;38053;53.100;6.078;2023-03-01T07:19:25;31.10;;;18.42;;
52043;SDS011;38053;53.100;6.078;2023-03-01T07:21:51;31.35;;;17.42;;
52043;SDS011;38053;53.100;6.078;2023-03-01T07:24:16;31.30;;;18.17;;
52043;SDS011;38053;53.100;6.078;2023-03-01T07:26:43;29.98;;;17.25;;
52043;SDS011;38053;53.100;6.078;2023-03-01T07:29:09;26.80;;;16.25;;
52043;SDS011;38053;53.100;6.078;2023-03-01T07:31:36;27.15;;;17.15;;
52043;SDS011;38053;53.100;6.078;2023-03-01T07:34:03;24.52;;;15.52;;
52043;SDS011;38053;53.100;6.078;2023-03-01T07:36:29;26.58;;;16.65;;
52043;SDS011;38053;53.100;6.078;2023-03-01T07:38:55;25.88;;;15.52;;
52043;SDS011;38053;53.100;6.078;2023-03-01T07:41:24;24.38;;;16.15;;
52043;SDS011;38053;53.100;6.078;2023-03-01T07:43:51;28.75;;;16.15;;
52043;SDS011;38053;53.100;6.078;2023-03-01T07:46:17;30.52;;;16.75;;
52043;SDS011;38053;53.100;6.078;2023-03-01T07:48:44;23.67;;;16.15;;
52043;SDS011;38053;53.100;6.078;2023-03-01T07:51:09;24.35;;;15.57;;
52043;SDS011;38053;53.100;6.078;2023-03-01T07:53:39;25.83;;;16.17;;
52043;SDS011;38053;53.100;6.078;2023-03-01T07:56:11;27.95;;;17.42;;
52043;SDS011;38053;53.100;6.078;2023-03-01T07:58:39;28.90;;;17.63;;
52043;SDS011;38053;53.100;6.078;2023-03-01T08:01:09;30.88;;;18.90;;
52043;SDS011;38053;53.100;6.078;2023-03-01T08:03:39;35.88;;;22.13;;
52043;SDS011;38053;53.100;6.078;2023-03-01T08:06:07;42.05;;;21.23;;
52043;SDS011;38053;53.100;6.078;2023-03-01T08:08:37;34.03;;;22.38;;
52043;SDS011;38053;53.100;6.078;2023-03-01T08:11:04;33.28;;;20.52;;
52043;SDS011;38053;53.100;6.078;2023-03-01T08:13:31;36.70;;;21.80;;
52043;SDS011;38053;53.100;6.078;2023-03-01T08:16:07;35.35;;;22.25;;
52043;SDS011;38053;53.100;6.078;2023-03-01T08:18:39;44.20;;;25.60;;
52043;SDS011;38053;53.100;6.078;2023-03-01T08:21:06;38.88;;;24.13;;
52043;SDS011;38053;53.100;6.078;2023-03-01T08:23:37;42.35;;;24.20;;
52043;SDS011;38053;53.100;6.078;2023-03-01T08:26:08;46.28;;;26.73;;
52043;SDS011;38053;53.100;6.078;2023-03-01T08:28:37;46.38;;;26.77;;
52043;SDS011;38053;53.100;6.078;2023-03-01T08:31:24;45.92;;;26.50;;
52043;SDS011;38053;53.100;6.078;2023-03-01T08:33:53;50.10;;;28.42;;
52043;SDS011;38053;53.100;6.078;2023-03-01T08:36:22;50.78;;;29.92;;
52043;SDS011;38053;53.100;6.078;2023-03-01T08:38:52;48.88;;;29.20;;
52043;SDS011;38053;53.100;6.078;2023-03-01T08:41:19;50.38;;;27.45;;
52043;SDS011;38053;53.100;6.078;2023-03-01T08:43:45;53.80;;;29.10;;
52043;SDS011;38053;53.100;6.078;2023-03-01T08:46:12;57.10;;;27.77;;
52043;SDS011;38053;53.100;6.078;2023-03-01T08:48:39;47.28;;;29.08;;
52043;SDS011;38053;53.100;6.078;2023-03-01T08:51:17;55.53;;;33.20;;
52043;SDS011;38053;53.100;6.078;2023-03-01T08:53:44;58.13;;;32.80;;
52043;SDS011;38053;53.100;6.078;2023-03-01T08:56:10;59.08;;;33.05;;
52043;SDS011;38053;53.100;6.078;2023-03-01T08:58:36;51.83;;;30.27;;
52043;SDS011;38053;53.100;6.078;2023-03-01T09:01:06;54.70;;;30.88;;
52043;SDS011;38053;53.100;6.078;2023-03-01T09:03:37;52.05;;;31.02;;
52043;SDS011;38053;53.100;6.078;2023-03-01T09:06:07;47.33;;;31.38;;
52043;SDS011;38053;53.100;6.078;2023-03-01T09:08:39;62.88;;;32.38;;
52043;SDS011;38053;53.100;6.078;2023-03-01T09:11:07;55.38;;;31.30;;
52043;SDS011;38053;53.100;6.078;2023-03-01T09:13:35;46.65;;;28.33;;
52043;SDS011;38053;53.100;6.078;2023-03-01T09:16:03;46.53;;;29.30;;
52043;SDS011;38053;53.100;6.078;2023-03-01T09:18:31;48.40;;;30.13;;
52043;SDS011;38053;53.100;6.078;2023-03-01T09:21:06;44.22;;;28.13;;
52043;SDS011;38053;53.100;6.078;2023-03-01T09:23:37;45.80;;;26.42;;
52043;SDS011;38053;53.100;6.078;2023-03-01T09:26:05;42.72;;;26.42;;
52043;SDS011;38053;53.100;6.078;2023-03-01T09:28:34;41.40;;;27.23;;
52043;SDS011;38053;53.100;6.078;2023-03-01T09:31:04;48.63;;;30.02;;
52043;SDS011;38053;53.100;6.078;2023-03-01T09:33:30;44.60;;;28.35;;
52043;SDS011;38053;53.100;6.078;2023-03-01T09:36:01;41.30;;;25.08;;
52043;SDS011;38053;53.100;6.078;2023-03-01T09:38:29;41.70;;;25.25;;
52043;SDS011;38053;53.100;6.078;2023-03-01T09:40:55;37.30;;;23.27;;
52043;SDS011;38053;53.100;6.078;2023-03-01T09:43:41;34.97;;;22.58;;
52043;SDS011;38053;53.100;6.078;2023-03-01T09:46:11;36.80;;;23.35;;
52043;SDS011;38053;53.100;6.078;2023-03-01T09:48:44;33.50;;;21.50;;
52043;SDS011;38053;53.100;6.078;2023-03-01T09:51:19;34.50;;;21.27;;
52043;SDS011;38053;53.100;6.078;2023-03-01T09:53:52;33.22;;;21.35;;
52043;SDS011;38053;53.100;6.078;2023-03-01T09:56:25;35.67;;;21.52;;
52043;SDS011;38053;53.100;6.078;2023-03-01T10:04:41;25.02;;;16.25;;
52043;SDS011;38053;53.100;6.078;2023-03-01T10:07:32;29.73;;;15.95;;
52043;SDS011;38053;53.100;6.078;2023-03-01T10:10:26;30.23;;;16.95;;
52043;SDS011;38053;53.100;6.078;2023-03-01T10:12:57;28.00;;;18.27;;
52043;SDS011;38053;53.100;6.078;2023-03-01T10:18:27;23.55;;;11.70;;
52043;SDS011;38053;53.100;6.078;2023-03-01T10:21:01;20.75;;;10.90;;
52043;SDS011;38053;53.100;6.078;2023-03-01T10:23:34;16.75;;;11.07;;
52043;SDS011;38053;53.100;6.078;2023-03-01T10:28:51;18.15;;;12.02;;
52043;SDS011;38053;53.100;6.078;2023-03-01T10:31:20;18.17;;;11.82;;
52043;SDS011;38053;53.100;6.078;2023-03-01T10:33:53;20.13;;;12.40;;
52043;SDS011;38053;53.100;6.078;2023-03-01T10:36:20;24.05;;;12.25;;
52043;SDS011;38053;53.100;6.078;2023-03-01T10:38:48;19.02;;;12.30;;
52043;SDS011;38053;53.100;6.078;2023-03-01T10:41:24;21.85;;;11.52;;
52043;SDS011;38053;53.100;6.078;2023-03-01T10:43:52;19.73;;;12.50;;
52043;SDS011;38053;53.100;6.078;2023-03-01T10:51:51;18.63;;;11.38;;
52043;SDS011;38053;53.100;6.078;2023-03-01T10:56:53;22.85;;;12.68;;
52043;SDS011;38053;53.100;6.078;2023-03-01T11:02:13;18.80;;;13.05;;
52043;SDS011;38053;53.100;6.078;2023-03-01T11:07:25;17.52;;;12.15;;
52043;SDS011;38053;53.100;6.078;2023-03-01T11:09:51;21.20;;;11.68;;
52043;SDS011;38053;53.100;6.078;2023-03-01T11:12:17;18.95;;;12.63;;
52043;SDS011;38053;53.100;6.078;2023-03-01T11:14:47;16.42;;;11.52;;
52043;SDS011;38053;53.100;6.078;2023-03-01T11:17:25;17.75;;;12.15;;
52043;SDS011;38053;53.100;6.078;2023-03-01T11:20:29;19.85;;;12.15;;
52043;SDS011;38053;53.100;6.078;2023-03-01T11:22:52;16.95;;;11.65;;
52043;SDS011;38053;53.100;6.078;2023-03-01T11:25:21;18.85;;;13.55;;
52043;SDS011;38053;53.100;6.078;2023-03-01T11:27:54;19.75;;;13.60;;
52043;SDS011;38053;53.100;6.078;2023-03-01T11:30:29;17.35;;;12.93;;
52043;SDS011;38053;53.100;6.078;2023-03-01T11:36:01;18.35;;;13.30;;
52043;SDS011;38053;53.100;6.078;2023-03-01T11:38:32;20.58;;;13.15;;
52043;SDS011;38053;53.100;6.078;2023-03-01T11:41:04;20.73;;;13.40;;
52043;SDS011;38053;53.100;6.078;2023-03-01T11:49:04;16.98;;;11.65;;
52043;SDS011;38053;53.100;6.078;2023-03-01T11:51:55;15.70;;;11.88;;
52043;SDS011;38053;53.100;6.078;2023-03-01T11:57:37;15.75;;;11.85;;
52043;SDS011;38053;53.100;6.078;2023-03-01T12:08:49;17.25;;;11.45;;
52043;SDS011;38053;53.100;6.078;2023-03-01T12:11:33;16.45;;;12.52;;
52043;SDS011;38053;53.100;6.078;2023-03-01T12:17:14;17.10;;;11.65;;
52043;SDS011;38053;53.100;6.078;2023-03-01T12:37:26;16.20;;;11.85;;
52043;SDS011;38053;53.100;6.078;2023-03-01T12:40:20;17.65;;;12.02;;
52043;SDS011;38053;53.100;6.078;2023-03-01T12:49:02;18.20;;;13.27;;
52043;SDS011;38053;53.100;6.078;2023-03-01T12:51:46;21.10;;;13.18;;
52043;SDS011;38053;53.100;6.078;2023-03-01T12:54:28;15.65;;;12.40;;
52043;SDS011;38053;53.100;6.078;2023-03-01T12:56:56;14.63;;;11.40;;
52043;SDS011;38053;53.100;6.078;2023-03-01T13:04:54;14.88;;;11.63;;
52043;SDS011;38053;53.100;6.078;2023-03-01T13:10:24;13.90;;;11.27;;
52043;SDS011;38053;53.100;6.078;2023-03-01T13:13:03;17.02;;;12.95;;
52043;SDS011;38053;53.100;6.078;2023-03-01T13:15:44;18.67;;;13.95;;
52043;SDS011;38053;53.100;6.078;2023-03-01T13:21:02;21.42;;;12.85;;
52043;SDS011;38053;53.100;6.078;2023-03-01T13:23:33;16.70;;;12.45;;
52043;SDS011;38053;53.100;6.078;2023-03-01T13:28:48;19.00;;;11.82;;
52043;SDS011;38053;53.100;6.078;2023-03-01T13:33:45;19.33;;;12.23;;
52043;SDS011;38053;53.100;6.078;2023-03-01T13:41:54;21.00;;;13.00;;
52043;SDS011;38053;53.100;6.078;2023-03-01T13:44:37;16.23;;;12.15;;
52043;SDS011;38053;53.100;6.078;2023-03-01T13:49:47;18.05;;;12.90;;
52043;SDS011;38053;53.100;6.078;2023-03-01T13:54:55;18.52;;;11.77;;
52043;SDS011;38053;53.100;6.078;2023-03-01T13:57:22;17.95;;;12.95;;
52043;SDS011;38053;53.100;6.078;2023-03-01T13:59:54;17.77;;;12.85;;
52043;SDS011;38053;53.100;6.078;2023-03-01T14:02:19;16.42;;;11.90;;
52043;SDS011;38053;53.100;6.078;2023-03-01T14:04:46;17.88;;;12.20;;
52043;SDS011;38053;53.100;6.078;2023-03-01T14:07:23;23.85;;;12.60;;
52043;SDS011;38053;53.100;6.078;2023-03-01T14:09:53;18.27;;;12.55;;
52043;SDS011;38053;53.100;6.078;2023-03-01T14:20:42;16.90;;;12.07;;
52043;SDS011;38053;53.100;6.078;2023-03-01T14:23:14;15.07;;;11.77;;
52043;SDS011;38053;53.100;6.078;2023-03-01T14:25:48;17.48;;;12.80;;
52043;SDS011;38053;53.100;6.078;2023-03-01T14:28:29;15.70;;;11.55;;
52043;SDS011;38053;53.100;6.078;2023-03-01T14:30:59;21.38;;;11.23;;
52043;SDS011;38053;53.100;6.078;2023-03-01T14:33:30;22.73;;;13.30;;
52043;SDS011;38053;53.100;6.078;2023-03-01T14:35:59;14.43;;;11.13;;
52043;SDS011;38053;53.100;6.078;2023-03-01T14:38:30;17.50;;;12.23;;
52043;SDS011;38053;53.100;6.078;2023-03-01T14:40:57;14.43;;;11.05;;
52043;SDS011;38053;53.100;6.078;2023-03-01T14:43:26;14.75;;;10.20;;
52043;SDS011;38053;53.100;6.078;2023-03-01T14:45:55;15.02;;;10.60;;
52043;SDS011;38053;53.100;6.078;2023-03-01T14:48:22;17.20;;;12.77;;
52043;SDS011;38053;53.100;6.078;2023-03-01T14:50:48;15.73;;;10.90;;
52043;SDS011;38053;53.100;6.078;2023-03-01T14:53:26;17.70;;;11.23;;
52043;SDS011;38053;53.100;6.078;2023-03-01T14:55:59;16.58;;;11.57;;
52043;SDS011;38053;53.100;6.078;2023-03-01T14:58:31;17.50;;;11.13;;
52043;SDS011;38053;53.100;6.078;2023-03-01T15:01:00;13.82;;;10.52;;
52043;SDS011;38053;53.100;6.078;2023-03-01T15:03:32;16.33;;;12.18;;
52043;SDS011;38053;53.100;6.078;2023-03-01T15:06:02;12.95;;;9.02;;
52043;SDS011;38053;53.100;6.078;2023-03-01T15:08:29;15.60;;;9.98;;
52043;SDS011;38053;53.100;6.078;2023-03-01T15:14:24;14.32;;;10.25;;
52043;SDS011;38053;53.100;6.078;2023-03-01T15:16:50;18.48;;;11.30;;
52043;SDS011;38053;53.100;6.078;2023-03-01T15:19:26;13.02;;;9.98;;
52043;SDS011;38053;53.100;6.078;2023-03-01T15:21:53;16.98;;;11.02;;
52043;SDS011;38053;53.100;6.078;2023-03-01T15:24:22;16.83;;;11.20;;
52043;SDS011;38053;53.100;6.078;2023-03-01T15:26:51;15.23;;;10.98;;
52043;SDS011;38053;53.100;6.078;2023-03-01T15:29:23;15.30;;;10.33;;
52043;SDS011;38053;53.100;6.078;2023-03-01T15:34:30;15.63;;;9.60;;
52043;SDS011;38053;53.100;6.078;2023-03-01T15:37:01;12.05;;;8.95;;
52043;SDS011;38053;53.100;6.078;2023-03-01T15:42:09;15.13;;;9.98;;
52043;SDS011;38053;53.100;6.078;2023-03-01T15:48:15;15.23;;;9.93;;
52043;SDS011;38053;53.100;6.078;2023-03-01T15:50:53;15.52;;;10.60;;
52043;SDS011;38053;53.100;6.078;2023-03-01T15:53:23;15.88;;;10.68;;
52043;SDS011;38053;53.100;6.078;2023-03-01T15:55:51;17.00;;;10.48;;
52043;SDS011;38053;53.100;6.078;2023-03-01T15:58:20;14.68;;;10.60;;
52043;SDS011;38053;53.100;6.078;2023-03-01T16:03:19;18.65;;;13.05;;
52043;SDS011;38053;53.100;6.078;2023-03-01T16:05:49;21.67;;;12.60;;
52043;SDS011;38053;53.100;6.078;2023-03-01T16:08:16;17.35;;;11.80;;
52043;SDS011;38053;53.100;6.078;2023-03-01T16:10:43;20.02;;;12.50;;
52043;SDS011;38053;53.100;6.078;2023-03-01T16:13:13;18.80;;;11.20;;
52043;SDS011;38053;53.100;6.078;2023-03-01T16:15:38;16.48;;;11.88;;
52043;SDS011;38053;53.100;6.078;2023-03-01T16:20:37;18.42;;;11.32;;
52043;SDS011;38053;53.100;6.078;2023-03-01T16:23:04;24.25;;;12.38;;
52043;SDS011;38053;53.100;6.078;2023-03-01T16:25:32;17.45;;;11.98;;
52043;SDS011;38053;53.100;6.078;2023-03-01T16:27:58;16.30;;;11.88;;
52043;SDS011;38053;53.100;6.078;2023-03-01T16:30:29;19.33;;;13.43;;
52043;SDS011;38053;53.100;6.078;2023-03-01T16:32:54;19.67;;;12.05;;
52043;SDS011;38053;53.100;6.078;2023-03-01T16:35:21;20.58;;;12.90;;
52043;SDS011;38053;53.100;6.078;2023-03-01T16:37:48;19.83;;;11.93;;
52043;SDS011;38053;53.100;6.078;2023-03-01T16:40:24;18.13;;;12.15;;
52043;SDS011;38053;53.100;6.078;2023-03-01T16:42:52;26.70;;;11.88;;
52043;SDS011;38053;53.100;6.078;2023-03-01T16:45:20;17.88;;;13.27;;
52043;SDS011;38053;53.100;6.078;2023-03-01T16:47:52;19.88;;;13.00;;
52043;SDS011;38053;53.100;6.078;2023-03-01T16:50:18;19.80;;;13.07;;
52043;SDS011;38053;53.100;6.078;2023-03-01T16:52:47;20.40;;;12.70;;
52043;SDS011;38053;53.100;6.078;2023-03-01T16:55:13;27.02;;;14.50;;
52043;SDS011;38053;53.100;6.078;2023-03-01T16:57:39;21.42;;;12.73;;